sensor_id;sensor_type;location;lat;lon;timestamp;pressure;altitude;pressure_sealevel;temperature;humidity
38452;BME280;24231;52.514;13.438;2022-10-26T00:01:57;101330.43;;;15.33;60.20
38452;BME280;24231;52.514;13.438;2022-10-26T00:04:25;101324.16;;;16.06;57.11
38452;BME280;24231;52.514;13.438;2022-10-26T00:06:52;101329.17;;;15.81;58.24
38452;BME280;24231;52.514;13.438;2022-10-26T00:09:19;101328.42;;;16.36;56.49
38452;BME280;24231;52.514;13.438;2022-10-26T00:11:46;101328.41;;;14.16;62.96
38452;BME280;24231;52.514;13.438;2022-10-26T00:14:13;101330.10;;;14.45;62.83
38452;BME280;24231;52.514;13.438;2022-10-26T00:16:40;101327.63;;;13.20;66.69
38452;BME280;24231;52.514;13.438;2022-10-26T00:19:08;101326.35;;;14.47;63.10
38452;BME280;24231;52.514;13.438;2022-10-26T00:21:34;101328.02;;;15.22;60.18
38452;BME280;24231;52.514;13.438;2022-10-26T00:24:02;101330.76;;;15.21;59.90
38452;BME280;24231;52.514;13.438;2022-10-26T00:26:30;101328.57;;;14.26;63.60
38452;BME280;24231;52.514;13.438;2022-10-26T00:28:57;101330.42;;;15.60;58.95
38452;BME280;24231;52.514;13.438;2022-10-26T00:31:24;101335.67;;;14.73;61.60
38452;BME280;24231;52.514;13.438;2022-10-26T00:33:52;101339.89;;;15.50;59.12
38452;BME280;24231;52.514;13.438;2022-10-26T00:36:19;101339.68;;;15.83;57.42
38452;BME280;24231;52.514;13.438;2022-10-26T00:38:48;101343.14;;;16.31;56.07
38452;BME280;24231;52.514;13.438;2022-10-26T00:41:16;101353.28;;;14.42;62.08
38452;BME280;24231;52.514;13.438;2022-10-26T00:43:44;101355.81;;;15.56;58.19
38452;BME280;24231;52.514;13.438;2022-10-26T00:46:14;101356.18;;;15.79;57.39
38452;BME280;24231;52.514;13.438;2022-10-26T00:48:47;101356.99;;;15.69;57.50
38452;BME280;24231;52.514;13.438;2022-10-26T00:51:22;101353.84;;;16.22;55.83
38452;BME280;24231;52.514;13.438;2022-10-26T00:53:50;101357.41;;;15.81;56.72
38452;BME280;24231;52.514;13.438;2022-10-26T00:56:18;101357.11;;;14.28;61.98
38452;BME280;24231;52.514;13.438;2022-10-26T00:58:46;101351.30;;;13.56;65.52
38452;BME280;24231;52.514;13.438;2022-10-26T01:01:13;101346.13;;;14.86;61.06
38452;BME280;24231;52.514;13.438;2022-10-26T01:03:41;101344.26;;;15.11;59.43
38452;BME280;24231;52.514;13.438;2022-10-26T01:06:09;101341.76;;;15.18;59.48
38452;BME280;24231;52.514;13.438;2022-10-26T01:08:37;101336.32;;;15.70;57.12
38452;BME280;24231;52.514;13.438;2022-10-26T01:11:05;101338.59;;;15.64;57.30
38452;BME280;24231;52.514;13.438;2022-10-26T01:13:33;101336.93;;;15.86;56.80
38452;BME280;24231;52.514;13.438;2022-10-26T01:16:14;101338.91;;;15.96;55.73
38452;BME280;24231;52.514;13.438;2022-10-26T01:18:52;101334.43;;;15.95;56.74
38452;BME280;24231;52.514;13.438;2022-10-26T01:21:39;101328.80;;;16.27;55.50
38452;BME280;24231;52.514;13.438;2022-10-26T01:24:20;101333.07;;;15.81;56.18
38452;BME280;24231;52.514;13.438;2022-10-26T01:27:00;101333.47;;;15.80;56.96
38452;BME280;24231;52.514;13.438;2022-10-26T01:30:08;101326.38;;;16.27;55.15
38452;BME280;24231;52.514;13.438;2022-10-26T01:32:39;101325.28;;;16.27;54.84
38452;BME280;24231;52.514;13.438;2022-10-26T01:35:14;101325.69;;;16.06;55.68
38452;BME280;24231;52.514;13.438;2022-10-26T01:37:46;101328.60;;;14.37;60.95
38452;BME280;24231;52.514;13.438;2022-10-26T01:40:18;101325.22;;;14.89;59.09
38452;BME280;24231;52.514;13.438;2022-10-26T01:42:50;101321.90;;;15.03;59.03
38452;BME280;24231;52.514;13.438;2022-10-26T01:45:24;101316.20;;;15.80;56.29
38452;BME280;24231;52.514;13.438;2022-10-26T01:47:54;101315.06;;;15.89;55.99
38452;BME280;24231;52.514;13.438;2022-10-26T01:50:22;101313.36;;;15.86;55.38
38452;BME280;24231;52.514;13.438;2022-10-26T01:52:51;101317.01;;;14.76;59.09
38452;BME280;24231;52.514;13.438;2022-10-26T01:55:51;101318.10;;;14.97;58.82
38452;BME280;24231;52.514;13.438;2022-10-26T02:00:32;101309.41;;;15.88;56.63
38452;BME280;24231;52.514;13.438;2022-10-26T02:03:08;101307.56;;;15.58;56.91
38452;BME280;24231;52.514;13.438;2022-10-26T02:05:51;101305.13;;;15.69;56.07
38452;BME280;24231;52.514;13.438;2022-10-26T02:08:30;101298.83;;;15.96;55.47
38452;BME280;24231;52.514;13.438;2022-10-26T02:11:07;101305.48;;;15.32;57.00
38452;BME280;24231;52.514;13.438;2022-10-26T02:13:42;101309.78;;;14.56;59.39
38452;BME280;24231;52.514;13.438;2022-10-26T02:16:18;101307.96;;;14.53;60.01
38452;BME280;24231;52.514;13.438;2022-10-26T02:18:53;101308.48;;;15.47;57.10
38452;BME280;24231;52.514;13.438;2022-10-26T02:21:28;101305.77;;;15.46;56.51
38452;BME280;24231;52.514;13.438;2022-10-26T02:23:58;101302.79;;;15.75;55.98
38452;BME280;24231;52.514;13.438;2022-10-26T02:26:27;101295.87;;;15.99;55.13
38452;BME280;24231;52.514;13.438;2022-10-26T02:28:59;101298.72;;;15.36;56.59
38452;BME280;24231;52.514;13.438;2022-10-26T02:31:30;101296.54;;;14.60;59.43
38452;BME280;24231;52.514;13.438;2022-10-26T02:34:00;101293.86;;;13.99;61.32
38452;BME280;24231;52.514;13.438;2022-10-26T02:36:32;101300.60;;;14.72;58.92
38452;BME280;24231;52.514;13.438;2022-10-26T02:39:02;101301.25;;;12.40;66.97
38452;BME280;24231;52.514;13.438;2022-10-26T02:41:32;101301.15;;;12.57;67.24
38452;BME280;24231;52.514;13.438;2022-10-26T02:44:06;101301.92;;;14.57;60.02
38452;BME280;24231;52.514;13.438;2022-10-26T02:46:34;101307.10;;;13.32;63.21
38452;BME280;24231;52.514;13.438;2022-10-26T02:49:02;101314.28;;;12.79;66.17
38452;BME280;24231;52.514;13.438;2022-10-26T02:51:34;101312.58;;;14.34;60.89
38452;BME280;24231;52.514;13.438;2022-10-26T02:54:12;101312.38;;;13.81;62.73
38452;BME280;24231;52.514;13.438;2022-10-26T02:56:45;101312.01;;;14.37;61.05
38452;BME280;24231;52.514;13.438;2022-10-26T02:59:14;101319.16;;;12.83;65.30
38452;BME280;24231;52.514;13.438;2022-10-26T03:01:43;101319.89;;;12.34;67.58
38452;BME280;24231;52.514;13.438;2022-10-26T03:04:11;101318.45;;;12.66;66.16
38452;BME280;24231;52.514;13.438;2022-10-26T03:06:38;101314.77;;;13.87;62.26
38452;BME280;24231;52.514;13.438;2022-10-26T03:09:05;101311.50;;;13.27;63.89
38452;BME280;24231;52.514;13.438;2022-10-26T03:11:32;101313.73;;;13.53;62.42
38452;BME280;24231;52.514;13.438;2022-10-26T03:14:00;101317.82;;;12.52;67.01
38452;BME280;24231;52.514;13.438;2022-10-26T03:16:27;101318.24;;;12.22;67.82
38452;BME280;24231;52.514;13.438;2022-10-26T03:18:54;101320.13;;;12.01;68.89
38452;BME280;24231;52.514;13.438;2022-10-26T03:21:21;101318.84;;;12.08;69.87
38452;BME280;24231;52.514;13.438;2022-10-26T03:23:47;101314.05;;;13.86;63.20
38452;BME280;24231;52.514;13.438;2022-10-26T03:26:15;101310.77;;;14.15;60.80
38452;BME280;24231;52.514;13.438;2022-10-26T03:28:42;101321.25;;;13.12;64.44
38452;BME280;24231;52.514;13.438;2022-10-26T03:31:09;101321.82;;;12.77;65.63
38452;BME280;24231;52.514;13.438;2022-10-26T03:33:36;101316.57;;;13.87;61.32
38452;BME280;24231;52.514;13.438;2022-10-26T03:36:04;101321.72;;;14.67;59.26
38452;BME280;24231;52.514;13.438;2022-10-26T03:38:31;101319.39;;;13.90;61.02
38452;BME280;24231;52.514;13.438;2022-10-26T03:40:58;101315.33;;;13.80;60.70
38452;BME280;24231;52.514;13.438;2022-10-26T03:43:26;101321.04;;;12.69;64.90
38452;BME280;24231;52.514;13.438;2022-10-26T03:45:52;101321.49;;;13.31;64.12
38452;BME280;24231;52.514;13.438;2022-10-26T03:48:20;101320.40;;;13.98;61.15
38452;BME280;24231;52.514;13.438;2022-10-26T03:50:47;101323.24;;;14.68;58.88
38452;BME280;24231;52.514;13.438;2022-10-26T03:53:14;101321.68;;;13.78;61.98
38452;BME280;24231;52.514;13.438;2022-10-26T03:55:43;101323.25;;;11.89;68.41
38452;BME280;24231;52.514;13.438;2022-10-26T03:58:10;101320.24;;;13.87;62.29
38452;BME280;24231;52.514;13.438;2022-10-26T04:00:38;101320.74;;;14.67;59.08
38452;BME280;24231;52.514;13.438;2022-10-26T04:03:06;101316.46;;;14.49;58.68
38452;BME280;24231;52.514;13.438;2022-10-26T04:05:33;101316.16;;;14.12;59.64
38452;BME280;24231;52.514;13.438;2022-10-26T04:08:01;101315.60;;;14.33;60.02
38452;BME280;24231;52.514;13.438;2022-10-26T04:10:27;101322.56;;;14.79;58.64
38452;BME280;24231;52.514;13.438;2022-10-26T04:12:55;101322.43;;;14.73;58.70
38452;BME280;24231;52.514;13.438;2022-10-26T04:15:22;101323.08;;;13.98;60.43
38452;BME280;24231;52.514;13.438;2022-10-26T04:17:54;101322.46;;;13.71;62.47
38452;BME280;24231;52.514;13.438;2022-10-26T04:20:22;101323.55;;;13.94;61.32
38452;BME280;24231;52.514;13.438;2022-10-26T04:22:56;101330.00;;;11.29;71.19
38452;BME280;24231;52.514;13.438;2022-10-26T04:25:24;101324.39;;;13.03;64.78
38452;BME280;24231;52.514;13.438;2022-10-26T04:27:50;101324.17;;;12.25;67.43
38452;BME280;24231;52.514;13.438;2022-10-26T04:30:18;101326.18;;;12.14;67.75
38452;BME280;24231;52.514;13.438;2022-10-26T04:32:45;101327.78;;;11.75;69.37
38452;BME280;24231;52.514;13.438;2022-10-26T04:35:12;101324.25;;;12.76;65.85
38452;BME280;24231;52.514;13.438;2022-10-26T04:37:40;101328.44;;;12.09;67.78
38452;BME280;24231;52.514;13.438;2022-10-26T04:40:08;101331.83;;;13.14;64.05
38452;BME280;24231;52.514;13.438;2022-10-26T04:42:40;101330.84;;;12.56;65.70
38452;BME280;24231;52.514;13.438;2022-10-26T04:45:10;101334.45;;;12.98;64.65
38452;BME280;24231;52.514;13.438;2022-10-26T04:47:38;101327.96;;;14.24;60.09
38452;BME280;24231;52.514;13.438;2022-10-26T04:50:06;101336.19;;;12.11;66.58
38452;BME280;24231;52.514;13.438;2022-10-26T04:52:34;101337.46;;;11.87;68.42
38452;BME280;24231;52.514;13.438;2022-10-26T04:55:02;101334.50;;;13.08;63.96
38452;BME280;24231;52.514;13.438;2022-10-26T04:57:29;101336.11;;;11.76;68.91
38452;BME280;24231;52.514;13.438;2022-10-26T04:59:56;101331.84;;;12.90;65.15
38452;BME280;24231;52.514;13.438;2022-10-26T05:02:24;101329.86;;;11.89;69.09
38452;BME280;24231;52.514;13.438;2022-10-26T05:04:51;101337.28;;;11.28;70.30
38452;BME280;24231;52.514;13.438;2022-10-26T05:07:18;101336.70;;;10.69;74.24
38452;BME280;24231;52.514;13.438;2022-10-26T05:09:46;101330.14;;;9.78;77.07
38452;BME280;24231;52.514;13.438;2022-10-26T05:12:13;101329.44;;;11.57;71.66
38452;BME280;24231;52.514;13.438;2022-10-26T05:14:40;101324.51;;;12.77;65.88
38452;BME280;24231;52.514;13.438;2022-10-26T05:17:08;101327.35;;;12.11;68.42
38452;BME280;24231;52.514;13.438;2022-10-26T05:19:35;101332.68;;;11.20;70.98
38452;BME280;24231;52.514;13.438;2022-10-26T05:22:03;101332.97;;;10.85;72.71
38452;BME280;24231;52.514;13.438;2022-10-26T05:24:30;101335.42;;;10.91;73.23
38452;BME280;24231;52.514;13.438;2022-10-26T05:26:57;101341.02;;;11.11;71.90
38452;BME280;24231;52.514;13.438;2022-10-26T05:29:24;101343.03;;;11.16;72.35
38452;BME280;24231;52.514;13.438;2022-10-26T05:31:52;101342.32;;;11.07;71.69
38452;BME280;24231;52.514;13.438;2022-10-26T05:34:19;101343.79;;;10.81;73.47
38452;BME280;24231;52.514;13.438;2022-10-26T05:36:45;101337.59;;;10.77;73.17
38452;BME280;24231;52.514;13.438;2022-10-26T05:39:13;101334.34;;;10.96;70.89
38452;BME280;24231;52.514;13.438;2022-10-26T05:41:40;101329.14;;;11.53;69.95
38452;BME280;24231;52.514;13.438;2022-10-26T05:44:08;101331.23;;;11.00;72.39
38452;BME280;24231;52.514;13.438;2022-10-26T05:46:35;101327.29;;;12.35;67.20
38452;BME280;24231;52.514;13.438;2022-10-26T05:49:02;101332.85;;;11.72;68.75
38452;BME280;24231;52.514;13.438;2022-10-26T05:51:31;101345.65;;;10.87;72.00
38452;BME280;24231;52.514;13.438;2022-10-26T05:53:58;101343.96;;;10.03;75.89
38452;BME280;24231;52.514;13.438;2022-10-26T05:56:33;101346.28;;;9.87;77.25
38452;BME280;24231;52.514;13.438;2022-10-26T05:59:01;101348.37;;;10.50;74.47
38452;BME280;24231;52.514;13.438;2022-10-26T06:01:36;101348.41;;;10.30;75.20
38452;BME280;24231;52.514;13.438;2022-10-26T06:04:17;101350.83;;;11.71;70.31
38452;BME280;24231;52.514;13.438;2022-10-26T06:06:52;101350.97;;;11.31;70.97
38452;BME280;24231;52.514;13.438;2022-10-26T06:09:20;101350.14;;;10.67;73.14
38452;BME280;24231;52.514;13.438;2022-10-26T06:11:48;101351.74;;;11.39;70.71
38452;BME280;24231;52.514;13.438;2022-10-26T06:14:15;101349.24;;;11.00;71.87
38452;BME280;24231;52.514;13.438;2022-10-26T06:16:56;101349.89;;;11.08;72.67
38452;BME280;24231;52.514;13.438;2022-10-26T06:19:35;101346.28;;;11.95;69.13
38452;BME280;24231;52.514;13.438;2022-10-26T06:22:17;101345.54;;;12.39;66.43
38452;BME280;24231;52.514;13.438;2022-10-26T06:24:53;101345.78;;;13.94;61.13
38452;BME280;24231;52.514;13.438;2022-10-26T06:27:30;101360.22;;;11.31;69.49
38452;BME280;24231;52.514;13.438;2022-10-26T06:30:02;101353.25;;;14.19;59.99
38452;BME280;24231;52.514;13.438;2022-10-26T06:32:30;101355.07;;;14.07;60.02
38452;BME280;24231;52.514;13.438;2022-10-26T06:35:04;101358.42;;;13.35;63.72
38452;BME280;24231;52.514;13.438;2022-10-26T06:37:36;101359.62;;;14.64;58.07
38452;BME280;24231;52.514;13.438;2022-10-26T06:40:06;101362.46;;;15.32;55.34
38452;BME280;24231;52.514;13.438;2022-10-26T06:42:34;101364.10;;;15.48;54.39
38452;BME280;24231;52.514;13.438;2022-10-26T06:45:03;101362.87;;;15.45;54.33
38452;BME280;24231;52.514;13.438;2022-10-26T06:47:34;101361.69;;;13.98;58.28
38452;BME280;24231;52.514;13.438;2022-10-26T06:50:11;101363.96;;;15.56;53.16
38452;BME280;24231;52.514;13.438;2022-10-26T06:52:47;101365.44;;;15.72;53.64
38452;BME280;24231;52.514;13.438;2022-10-26T06:55:18;101367.45;;;15.42;53.85
38452;BME280;24231;52.514;13.438;2022-10-26T06:57:46;101365.03;;;16.09;51.89
38452;BME280;24231;52.514;13.438;2022-10-26T07:00:19;101371.08;;;14.96;55.77
38452;BME280;24231;52.514;13.438;2022-10-26T07:02:46;101373.24;;;15.15;56.17
38452;BME280;24231;52.514;13.438;2022-10-26T07:05:14;101371.31;;;15.97;51.55
38452;BME280;24231;52.514;13.438;2022-10-26T07:07:43;101370.55;;;14.86;55.00
38452;BME280;24231;52.514;13.438;2022-10-26T07:10:12;101363.69;;;16.00;51.86
38452;BME280;24231;52.514;13.438;2022-10-26T07:12:40;101369.76;;;15.47;53.36
38452;BME280;24231;52.514;13.438;2022-10-26T07:15:07;101365.46;;;15.99;51.27
38452;BME280;24231;52.514;13.438;2022-10-26T07:17:41;101365.76;;;16.30;51.45
38452;BME280;24231;52.514;13.438;2022-10-26T07:20:09;101365.22;;;16.61;49.71
38452;BME280;24231;52.514;13.438;2022-10-26T07:22:37;101375.19;;;15.27;54.77
38452;BME280;24231;52.514;13.438;2022-10-26T07:25:05;101372.18;;;16.11;53.47
38452;BME280;24231;52.514;13.438;2022-10-26T07:27:33;101375.22;;;15.81;52.18
38452;BME280;24231;52.514;13.438;2022-10-26T07:30:00;101375.91;;;17.11;48.52
38452;BME280;24231;52.514;13.438;2022-10-26T07:32:27;101375.96;;;16.27;52.32
38452;BME280;24231;52.514;13.438;2022-10-26T07:34:55;101381.59;;;15.83;52.78
38452;BME280;24231;52.514;13.438;2022-10-26T07:37:22;101373.68;;;16.26;51.35
38452;BME280;24231;52.514;13.438;2022-10-26T07:39:49;101371.28;;;16.82;50.29
38452;BME280;24231;52.514;13.438;2022-10-26T07:42:17;101371.09;;;16.76;50.45
38452;BME280;24231;52.514;13.438;2022-10-26T07:44:44;101372.33;;;16.31;51.88
38452;BME280;24231;52.514;13.438;2022-10-26T07:47:11;101370.33;;;16.94;49.53
38452;BME280;24231;52.514;13.438;2022-10-26T07:49:38;101367.89;;;17.67;46.90
38452;BME280;24231;52.514;13.438;2022-10-26T07:52:06;101365.77;;;18.24;45.95
38452;BME280;24231;52.514;13.438;2022-10-26T07:54:33;101368.40;;;18.06;46.33
38452;BME280;24231;52.514;13.438;2022-10-26T07:57:00;101368.55;;;18.02;46.54
38452;BME280;24231;52.514;13.438;2022-10-26T07:59:27;101368.12;;;16.35;49.78
38452;BME280;24231;52.514;13.438;2022-10-26T08:01:54;101368.49;;;17.89;46.98
38452;BME280;24231;52.514;13.438;2022-10-26T08:04:21;101370.89;;;17.83;46.67
38452;BME280;24231;52.514;13.438;2022-10-26T08:06:48;101368.31;;;18.04;46.68
38452;BME280;24231;52.514;13.438;2022-10-26T08:09:15;101368.51;;;18.15;46.36
38452;BME280;24231;52.514;13.438;2022-10-26T08:11:42;101371.60;;;17.34;48.38
38452;BME280;24231;52.514;13.438;2022-10-26T08:14:10;101367.72;;;17.95;46.56
38452;BME280;24231;52.514;13.438;2022-10-26T08:16:37;101372.97;;;18.31;45.70
38452;BME280;24231;52.514;13.438;2022-10-26T08:19:04;101377.10;;;18.00;46.21
38452;BME280;24231;52.514;13.438;2022-10-26T08:21:31;101379.41;;;16.50;51.09
38452;BME280;24231;52.514;13.438;2022-10-26T08:23:59;101381.34;;;17.58;47.37
38452;BME280;24231;52.514;13.438;2022-10-26T08:26:25;101380.30;;;16.53;51.16
38452;BME280;24231;52.514;13.438;2022-10-26T08:28:53;101383.90;;;17.25;48.46
38452;BME280;24231;52.514;13.438;2022-10-26T08:31:20;101383.39;;;18.49;45.77
38452;BME280;24231;52.514;13.438;2022-10-26T08:33:47;101377.59;;;18.57;45.84
38452;BME280;24231;52.514;13.438;2022-10-26T08:36:16;101374.46;;;18.61;45.25
38452;BME280;24231;52.514;13.438;2022-10-26T08:38:46;101374.99;;;18.51;45.79
38452;BME280;24231;52.514;13.438;2022-10-26T08:41:14;101375.56;;;18.71;45.04
38452;BME280;24231;52.514;13.438;2022-10-26T08:43:45;101378.81;;;17.41;47.74
38452;BME280;24231;52.514;13.438;2022-10-26T08:46:18;101379.23;;;17.21;48.00
38452;BME280;24231;52.514;13.438;2022-10-26T08:48:48;101388.19;;;15.51;53.33
38452;BME280;24231;52.514;13.438;2022-10-26T08:51:19;101378.07;;;17.16;49.76
38452;BME280;24231;52.514;13.438;2022-10-26T08:53:49;101377.82;;;16.37;52.08
38452;BME280;24231;52.514;13.438;2022-10-26T08:56:21;101380.63;;;18.43;47.60
38452;BME280;24231;52.514;13.438;2022-10-26T08:58:53;101381.57;;;17.90;47.89
38452;BME280;24231;52.514;13.438;2022-10-26T09:01:21;101380.20;;;18.14;47.09
38452;BME280;24231;52.514;13.438;2022-10-26T09:03:48;101378.07;;;19.18;44.93
38452;BME280;24231;52.514;13.438;2022-10-26T09:06:24;101377.26;;;19.16;45.16
38452;BME280;24231;52.514;13.438;2022-10-26T09:08:58;101376.07;;;19.45;44.62
38452;BME280;24231;52.514;13.438;2022-10-26T09:11:43;101377.20;;;18.49;47.27
38452;BME280;24231;52.514;13.438;2022-10-26T09:14:18;101378.58;;;19.61;44.47
38452;BME280;24231;52.514;13.438;2022-10-26T09:16:54;101379.53;;;18.96;46.41
38452;BME280;24231;52.514;13.438;2022-10-26T09:19:34;101381.72;;;18.89;46.46
38452;BME280;24231;52.514;13.438;2022-10-26T09:22:09;101381.72;;;20.05;44.05
38452;BME280;24231;52.514;13.438;2022-10-26T09:24:39;101387.51;;;18.70;47.01
38452;BME280;24231;52.514;13.438;2022-10-26T09:27:16;101384.10;;;19.52;44.87
38452;BME280;24231;52.514;13.438;2022-10-26T09:29:46;101387.72;;;19.36;45.43
38452;BME280;24231;52.514;13.438;2022-10-26T09:32:18;101387.68;;;19.17;46.11
38452;BME280;24231;52.514;13.438;2022-10-26T09:34:48;101387.35;;;18.57;47.60
38452;BME280;24231;52.514;13.438;2022-10-26T09:37:20;101387.78;;;19.69;44.44
38452;BME280;24231;52.514;13.438;2022-10-26T09:39:54;101385.12;;;19.37;45.58
38452;BME280;24231;52.514;13.438;2022-10-26T09:42:26;101387.52;;;19.94;44.60
38452;BME280;24231;52.514;13.438;2022-10-26T09:44:57;101381.65;;;20.22;43.78
38452;BME280;24231;52.514;13.438;2022-10-26T09:47:32;101391.98;;;17.40;51.02
38452;BME280;24231;52.514;13.438;2022-10-26T09:50:09;101394.09;;;19.16;47.38
38452;BME280;24231;52.514;13.438;2022-10-26T09:52:41;101390.01;;;20.30;44.75
38452;BME280;24231;52.514;13.438;2022-10-26T09:55:10;101388.41;;;20.16;45.29
38452;BME280;24231;52.514;13.438;2022-10-26T09:57:39;101393.21;;;19.61;46.35
38452;BME280;24231;52.514;13.438;2022-10-26T10:00:13;101393.24;;;18.73;48.75
38452;BME280;24231;52.514;13.438;2022-10-26T10:02:43;101395.31;;;19.16;47.82
38452;BME280;24231;52.514;13.438;2022-10-26T10:05:29;101395.46;;;19.10;48.22
38452;BME280;24231;52.514;13.438;2022-10-26T10:08:28;101397.46;;;19.97;46.18
38452;BME280;24231;52.514;13.438;2022-10-26T10:10:57;101399.42;;;18.95;48.03
38452;BME280;24231;52.514;13.438;2022-10-26T10:13:27;101402.69;;;18.56;50.14
38452;BME280;24231;52.514;13.438;2022-10-26T10:16:00;101400.68;;;18.20;51.00
38452;BME280;24231;52.514;13.438;2022-10-26T10:18:28;101399.17;;;18.93;48.92
38452;BME280;24231;52.514;13.438;2022-10-26T10:20:57;101398.26;;;17.92;51.49
38452;BME280;24231;52.514;13.438;2022-10-26T10:23:28;101395.92;;;17.80;52.34
38452;BME280;24231;52.514;13.438;2022-10-26T10:26:00;101394.75;;;18.06;51.57
38452;BME280;24231;52.514;13.438;2022-10-26T10:28:29;101392.06;;;17.62;53.69
38452;BME280;24231;52.514;13.438;2022-10-26T10:30:58;101391.67;;;18.48;51.44
38452;BME280;24231;52.514;13.438;2022-10-26T10:33:41;101388.89;;;18.64;50.59
38452;BME280;24231;52.514;13.438;2022-10-26T10:36:12;101390.17;;;19.82;47.01
38452;BME280;24231;52.514;13.438;2022-10-26T10:38:43;101387.96;;;19.32;48.30
38452;BME280;24231;52.514;13.438;2022-10-26T10:41:17;101389.21;;;19.35;47.84
38452;BME280;24231;52.514;13.438;2022-10-26T10:43:48;101391.39;;;18.41;50.90
38452;BME280;24231;52.514;13.438;2022-10-26T10:46:19;101392.78;;;18.75;50.13
38452;BME280;24231;52.514;13.438;2022-10-26T10:48:51;101392.04;;;18.95;48.77
38452;BME280;24231;52.514;13.438;2022-10-26T10:51:21;101391.39;;;18.55;49.23
38452;BME280;24231;52.514;13.438;2022-10-26T10:53:51;101394.77;;;17.65;51.87
38452;BME280;24231;52.514;13.438;2022-10-26T10:56:30;101385.88;;;18.31;49.47
38452;BME280;24231;52.514;13.438;2022-10-26T10:59:09;101385.45;;;18.10;50.21
38452;BME280;24231;52.514;13.438;2022-10-26T11:01:44;101386.26;;;18.95;48.45
38452;BME280;24231;52.514;13.438;2022-10-26T11:04:43;101388.18;;;19.15;48.17
38452;BME280;24231;52.514;13.438;2022-10-26T11:07:15;101388.57;;;18.65;49.26
38452;BME280;24231;52.514;13.438;2022-10-26T11:09:45;101390.19;;;17.86;51.37
38452;BME280;24231;52.514;13.438;2022-10-26T11:12:17;101390.75;;;18.43;49.59
38452;BME280;24231;52.514;13.438;2022-10-26T11:14:47;101390.50;;;18.04;51.22
38452;BME280;24231;52.514;13.438;2022-10-26T11:17:20;101392.26;;;17.89;51.57
38452;BME280;24231;52.514;13.438;2022-10-26T11:19:52;101390.45;;;17.96;50.43
38452;BME280;24231;52.514;13.438;2022-10-26T11:22:26;101392.98;;;18.13;50.12
38452;BME280;24231;52.514;13.438;2022-10-26T11:24:58;101391.48;;;19.00;47.99
38452;BME280;24231;52.514;13.438;2022-10-26T11:27:29;101388.62;;;19.03;47.69
38452;BME280;24231;52.514;13.438;2022-10-26T11:30:03;101388.39;;;18.59;48.93
38452;BME280;24231;52.514;13.438;2022-10-26T11:32:39;101390.32;;;17.55;52.36
38452;BME280;24231;52.514;13.438;2022-10-26T11:35:13;101383.70;;;18.00;50.89
38452;BME280;24231;52.514;13.438;2022-10-26T11:37:48;101383.59;;;19.64;46.91
38452;BME280;24231;52.514;13.438;2022-10-26T11:40:26;101378.92;;;18.30;50.05
38452;BME280;24231;52.514;13.438;2022-10-26T11:43:04;101374.99;;;17.52;53.70
38452;BME280;24231;52.514;13.438;2022-10-26T11:45:38;101372.16;;;17.60;53.69
38452;BME280;24231;52.514;13.438;2022-10-26T11:48:14;101369.35;;;17.63;52.99
38452;BME280;24231;52.514;13.438;2022-10-26T11:50:47;101370.91;;;17.12;53.78
38452;BME280;24231;52.514;13.438;2022-10-26T11:53:17;101368.46;;;16.77;56.00
38452;BME280;24231;52.514;13.438;2022-10-26T11:55:51;101369.89;;;17.45;54.03
38452;BME280;24231;52.514;13.438;2022-10-26T11:58:23;101364.90;;;17.00;55.38
38452;BME280;24231;52.514;13.438;2022-10-26T12:00:53;101365.02;;;16.80;56.63
38452;BME280;24231;52.514;13.438;2022-10-26T12:03:25;101363.86;;;17.04;56.05
38452;BME280;24231;52.514;13.438;2022-10-26T12:05:53;101362.79;;;16.59;56.20
38452;BME280;24231;52.514;13.438;2022-10-26T12:08:24;101360.10;;;17.35;54.47
38452;BME280;24231;52.514;13.438;2022-10-26T12:10:59;101362.73;;;16.47;57.79
38452;BME280;24231;52.514;13.438;2022-10-26T12:13:32;101366.90;;;16.86;56.29
38452;BME280;24231;52.514;13.438;2022-10-26T12:16:08;101364.77;;;16.53;56.61
38452;BME280;24231;52.514;13.438;2022-10-26T12:18:42;101359.90;;;16.43;57.82
38452;BME280;24231;52.514;13.438;2022-10-26T12:21:13;101357.12;;;16.53;57.54
38452;BME280;24231;52.514;13.438;2022-10-26T12:23:53;101355.58;;;16.63;56.70
38452;BME280;24231;52.514;13.438;2022-10-26T12:26:38;101346.04;;;16.29;57.93
38452;BME280;24231;52.514;13.438;2022-10-26T12:29:28;101350.58;;;16.13;58.42
38452;BME280;24231;52.514;13.438;2022-10-26T12:31:57;101346.08;;;16.20;59.02
38452;BME280;24231;52.514;13.438;2022-10-26T12:37:23;101341.66;;;16.92;55.02
38452;BME280;24231;52.514;13.438;2022-10-26T12:39:54;101347.36;;;16.72;56.15
38452;BME280;24231;52.514;13.438;2022-10-26T12:42:28;101348.20;;;17.21;55.32
38452;BME280;24231;52.514;13.438;2022-10-26T12:45:28;101347.16;;;16.85;55.60
38452;BME280;24231;52.514;13.438;2022-10-26T12:48:09;101349.60;;;16.57;56.13
38452;BME280;24231;52.514;13.438;2022-10-26T12:50:47;101346.53;;;17.06;54.82
38452;BME280;24231;52.514;13.438;2022-10-26T12:53:25;101346.14;;;16.87;55.73
38452;BME280;24231;52.514;13.438;2022-10-26T12:56:03;101344.59;;;16.45;57.06
38452;BME280;24231;52.514;13.438;2022-10-26T12:58:45;101346.65;;;16.37;57.20
38452;BME280;24231;52.514;13.438;2022-10-26T13:01:27;101347.11;;;16.88;55.40
38452;BME280;24231;52.514;13.438;2022-10-26T13:04:07;101347.56;;;16.71;56.00
38452;BME280;24231;52.514;13.438;2022-10-26T13:06:49;101348.05;;;17.20;55.08